sensor_id;sensor_type;location;lat;lon;timestamp;pressure;altitude;pressure_sealevel;temperature;humidity
49459;BME280;35354;51.296;16.924;2024-01-15T00:00:04;97642.72;;;2.05;100.00
49459;BME280;35354;51.296;16.924;2024-01-15T00:02:29;97645.16;;;2.08;100.00
49459;BME280;35354;51.296;16.924;2024-01-15T00:04:55;97601.88;;;1.80;100.00
49459;BME280;35354;51.296;16.924;2024-01-15T00:07:20;97606.75;;;1.86;100.00
49459;BME280;35354;51.296;16.924;2024-01-15T00:09:46;97596.41;;;1.88;100.00
49459;BME280;35354;51.296;16.924;2024-01-15T00:12:11;97611.34;;;1.98;100.00
49459;BME280;35354;51.296;16.924;2024-01-15T00:14:36;97568.09;;;1.70;100.00
49459;BME280;35354;51.296;16.924;2024-01-15T00:17:02;97599.88;;;1.87;100.00
49459;BME280;35354;51.296;16.924;2024-01-15T00:19:27;97596.75;;;1.80;100.00
49459;BME280;35354;51.296;16.924;2024-01-15T00:21:53;97585.53;;;1.83;100.00
49459;BME280;35354;51.296;16.924;2024-01-15T00:24:18;97619.59;;;2.05;100.00
49459;BME280;35354;51.296;16.924;2024-01-15T00:26:44;97617.84;;;2.06;100.00
49459;BME280;35354;51.296;16.924;2024-01-15T00:29:10;97611.75;;;2.08;100.00
49459;BME280;35354;51.296;16.924;2024-01-15T00:31:35;97590.16;;;1.93;100.00
49459;BME280;35354;51.296;16.924;2024-01-15T00:34:01;97563.34;;;1.82;100.00
49459;BME280;35354;51.296;16.924;2024-01-15T00:36:26;97590.16;;;1.93;100.00
49459;BME280;35354;51.296;16.924;2024-01-15T00:38:53;97586.06;;;1.89;100.00
49459;BME280;35354;51.296;16.924;2024-01-15T00:41:18;97592.53;;;1.98;100.00
49459;BME280;35354;51.296;16.924;2024-01-15T00:43:45;97556.38;;;1.84;100.00
49459;BME280;35354;51.296;16.924;2024-01-15T00:46:10;97592.19;;;2.06;100.00
49459;BME280;35354;51.296;16.924;2024-01-15T00:48:35;97580.16;;;2.06;100.00
49459;BME280;35354;51.296;16.924;2024-01-15T00:51:01;97540.22;;;1.82;100.00
49459;BME280;35354;51.296;16.924;2024-01-15T00:53:26;97546.03;;;1.85;100.00
49459;BME280;35354;51.296;16.924;2024-01-15T00:55:52;97572.56;;;2.05;100.00
49459;BME280;35354;51.296;16.924;2024-01-15T00:58:18;97563.94;;;2.06;100.00
49459;BME280;35354;51.296;16.924;2024-01-15T01:00:44;97532.31;;;1.86;100.00
49459;BME280;35354;51.296;16.924;2024-01-15T01:03:09;97557.22;;;2.03;100.00
49459;BME280;35354;51.296;16.924;2024-01-15T01:05:35;97519.91;;;1.77;100.00
49459;BME280;35354;51.296;16.924;2024-01-15T01:08:00;97523.34;;;1.76;100.00
49459;BME280;35354;51.296;16.924;2024-01-15T01:10:26;97539.94;;;1.88;100.00
49459;BME280;35354;51.296;16.924;2024-01-15T01:12:51;97548.34;;;1.91;100.00
49459;BME280;35354;51.296;16.924;2024-01-15T01:15:18;97516.91;;;1.67;100.00
49459;BME280;35354;51.296;16.924;2024-01-15T01:17:43;97520.78;;;1.76;100.00
49459;BME280;35354;51.296;16.924;2024-01-15T01:20:09;97554.31;;;1.92;100.00
49459;BME280;35354;51.296;16.924;2024-01-15T01:22:35;97543.56;;;1.84;100.00
49459;BME280;35354;51.296;16.924;2024-01-15T01:25:01;97542.59;;;1.86;100.00
49459;BME280;35354;51.296;16.924;2024-01-15T01:27:27;97509.41;;;1.63;100.00
49459;BME280;35354;51.296;16.924;2024-01-15T01:29:52;97513.44;;;1.68;100.00
49459;BME280;35354;51.296;16.924;2024-01-15T01:32:18;97537.59;;;1.83;100.00
49459;BME280;35354;51.296;16.924;2024-01-15T01:34:43;97522.47;;;1.77;100.00
49459;BME280;35354;51.296;16.924;2024-01-15T01:37:10;97494.44;;;1.54;100.00
49459;BME280;35354;51.296;16.924;2024-01-15T01:39:37;97500.13;;;1.60;100.00
49459;BME280;35354;51.296;16.924;2024-01-15T01:42:03;97499.22;;;1.61;100.00
49459;BME280;35354;51.296;16.924;2024-01-15T01:44:28;97540.22;;;1.82;100.00
49459;BME280;35354;51.296;16.924;2024-01-15T01:46:54;97505.91;;;1.65;100.00
49459;BME280;35354;51.296;16.924;2024-01-15T01:49:19;97489.88;;;1.60;100.00
49459;BME280;35354;51.296;16.924;2024-01-15T01:51:46;97524.75;;;1.83;100.00
49459;BME280;35354;51.296;16.924;2024-01-15T01:54:12;97522.09;;;1.85;100.00
49459;BME280;35354;51.296;16.924;2024-01-15T01:56:40;97499.72;;;1.69;100.00
49459;BME280;35354;51.296;16.924;2024-01-15T01:59:07;97487.38;;;1.59;100.00
49459;BME280;35354;51.296;16.924;2024-01-15T02:01:33;97474.41;;;1.62;100.00
49459;BME280;35354;51.296;16.924;2024-01-15T02:03:58;97517.06;;;1.83;100.00
49459;BME280;35354;51.296;16.924;2024-01-15T02:06:24;97477.09;;;1.59;100.00
49459;BME280;35354;51.296;16.924;2024-01-15T02:08:50;97496.81;;;1.77;100.00
49459;BME280;35354;51.296;16.924;2024-01-15T02:11:15;97466.84;;;1.59;100.00
49459;BME280;35354;51.296;16.924;2024-01-15T02:13:41;97510.97;;;1.86;100.00
49459;BME280;35354;51.296;16.924;2024-01-15T02:16:06;97457.34;;;1.61;100.00
49459;BME280;35354;51.296;16.924;2024-01-15T02:18:44;97493.19;;;1.81;100.00
49459;BME280;35354;51.296;16.924;2024-01-15T02:21:10;97451.44;;;1.59;100.00
49459;BME280;35354;51.296;16.924;2024-01-15T02:23:37;97453.09;;;1.60;100.00
49459;BME280;35354;51.296;16.924;2024-01-15T02:26:02;97452.88;;;1.64;100.00
49459;BME280;35354;51.296;16.924;2024-01-15T02:28:28;97456.38;;;1.63;100.00
49459;BME280;35354;51.296;16.924;2024-01-15T02:30:54;97467.09;;;1.71;100.00
49459;BME280;35354;51.296;16.924;2024-01-15T02:33:19;97444.34;;;1.64;100.00
49459;BME280;35354;51.296;16.924;2024-01-15T02:35:45;97407.47;;;1.47;100.00
49459;BME280;35354;51.296;16.924;2024-01-15T02:38:12;97462.31;;;1.83;100.00
49459;BME280;35354;51.296;16.924;2024-01-15T02:40:38;97436.41;;;1.70;100.00
49459;BME280;35354;51.296;16.924;2024-01-15T02:43:04;97441.41;;;1.73;100.00
49459;BME280;35354;51.296;16.924;2024-01-15T02:45:29;97460.38;;;1.88;100.00
49459;BME280;35354;51.296;16.924;2024-01-15T02:47:55;97389.59;;;1.46;100.00
49459;BME280;35354;51.296;16.924;2024-01-15T02:50:20;97420.19;;;1.69;100.00
49459;BME280;35354;51.296;16.924;2024-01-15T02:52:46;97447.53;;;1.88;100.00
49459;BME280;35354;51.296;16.924;2024-01-15T02:55:11;97430.09;;;1.77;100.00
49459;BME280;35354;51.296;16.924;2024-01-15T02:57:37;97422.53;;;1.74;100.00
49459;BME280;35354;51.296;16.924;2024-01-15T03:00:02;97429.91;;;1.80;100.00
49459;BME280;35354;51.296;16.924;2024-01-15T03:02:29;97375.22;;;1.43;100.00
49459;BME280;35354;51.296;16.924;2024-01-15T03:04:57;97385.25;;;1.48;100.00
49459;BME280;35354;51.296;16.924;2024-01-15T03:07:22;97405.97;;;1.62;100.00
49459;BME280;35354;51.296;16.924;2024-01-15T03:09:47;97386.59;;;1.55;100.00
49459;BME280;35354;51.296;16.924;2024-01-15T03:12:13;97384.81;;;1.57;100.00
49459;BME280;35354;51.296;16.924;2024-01-15T03:14:38;97399.88;;;1.65;100.00
49459;BME280;35354;51.296;16.924;2024-01-15T03:17:04;97429.88;;;1.82;100.00
49459;BME280;35354;51.296;16.924;2024-01-15T03:19:29;97401.66;;;1.63;100.00
49459;BME280;35354;51.296;16.924;2024-01-15T03:21:56;97398.41;;;1.59;100.00
49459;BME280;35354;51.296;16.924;2024-01-15T03:24:21;97429.91;;;1.80;100.00
49459;BME280;35354;51.296;16.924;2024-01-15T03:26:47;97419.81;;;1.77;100.00
49459;BME280;35354;51.296;16.924;2024-01-15T03:29:12;97405.53;;;1.71;100.00
49459;BME280;35354;51.296;16.924;2024-01-15T03:31:37;97381.47;;;1.55;100.00
49459;BME280;35354;51.296;16.924;2024-01-15T03:34:03;97394.72;;;1.65;100.00
49459;BME280;35354;51.296;16.924;2024-01-15T03:36:28;97373.88;;;1.54;100.00
49459;BME280;35354;51.296;16.924;2024-01-15T03:38:54;97367.28;;;1.48;100.00
49459;BME280;35354;51.296;16.924;2024-01-15T03:41:19;97398.59;;;1.73;100.00
49459;BME280;35354;51.296;16.924;2024-01-15T03:43:45;97361.19;;;1.50;100.00
49459;BME280;35354;51.296;16.924;2024-01-15T03:46:10;97362.78;;;1.53;100.00
49459;BME280;35354;51.296;16.924;2024-01-15T03:48:36;97390.91;;;1.73;100.00
49459;BME280;35354;51.296;16.924;2024-01-15T03:51:01;97393.75;;;1.67;100.00
49459;BME280;35354;51.296;16.924;2024-01-15T03:53:26;97374.25;;;1.63;100.00
49459;BME280;35354;51.296;16.924;2024-01-15T03:55:52;97365.88;;;1.60;100.00
49459;BME280;35354;51.296;16.924;2024-01-15T03:58:17;97377.38;;;1.70;100.00
49459;BME280;35354;51.296;16.924;2024-01-15T04:00:43;97349.81;;;1.56;100.00
49459;BME280;35354;51.296;16.924;2024-01-15T04:03:09;97358.16;;;1.60;100.00
49459;BME280;35354;51.296;16.924;2024-01-15T04:05:35;97347.44;;;1.52;100.00
49459;BME280;35354;51.296;16.924;2024-01-15T04:08:00;97341.78;;;1.45;100.00
49459;BME280;35354;51.296;16.924;2024-01-15T04:10:26;97364.00;;;1.63;100.00
49459;BME280;35354;51.296;16.924;2024-01-15T04:12:51;97344.00;;;1.53;100.00
49459;BME280;35354;51.296;16.924;2024-01-15T04:15:17;97358.81;;;1.65;100.00
49459;BME280;35354;51.296;16.924;2024-01-15T04:17:42;97339.59;;;1.55;100.00
49459;BME280;35354;51.296;16.924;2024-01-15T04:20:08;97332.44;;;1.44;100.00
49459;BME280;35354;51.296;16.924;2024-01-15T04:22:35;97351.25;;;1.62;100.00
49459;BME280;35354;51.296;16.924;2024-01-15T04:25:00;97324.75;;;1.44;100.00
49459;BME280;35354;51.296;16.924;2024-01-15T04:27:26;97353.50;;;1.68;100.00
49459;BME280;35354;51.296;16.924;2024-01-15T04:29:51;97332.00;;;1.53;100.00
49459;BME280;35354;51.296;16.924;2024-01-15T04:32:17;97335.31;;;1.55;100.00
49459;BME280;35354;51.296;16.924;2024-01-15T04:34:42;97350.56;;;1.58;100.00
49459;BME280;35354;51.296;16.924;2024-01-15T04:37:07;97330.53;;;1.47;100.00
49459;BME280;35354;51.296;16.924;2024-01-15T04:39:33;97331.16;;;1.53;100.00
49459;BME280;35354;51.296;16.924;2024-01-15T04:41:58;97311.91;;;1.44;100.00
49459;BME280;35354;51.296;16.924;2024-01-15T04:44:24;97282.81;;;1.26;100.00
49459;BME280;35354;51.296;16.924;2024-01-15T04:46:49;97296.50;;;1.27;100.00
49459;BME280;35354;51.296;16.924;2024-01-15T04:49:14;97298.06;;;1.29;100.00
49459;BME280;35354;51.296;16.924;2024-01-15T04:51:40;97321.25;;;1.45;100.00
49459;BME280;35354;51.296;16.924;2024-01-15T04:54:05;97299.56;;;1.33;100.00
49459;BME280;35354;51.296;16.924;2024-01-15T04:56:30;97316.97;;;1.45;100.00
49459;BME280;35354;51.296;16.924;2024-01-15T04:58:56;97327.13;;;1.47;100.00
49459;BME280;35354;51.296;16.924;2024-01-15T05:01:21;97343.09;;;1.54;100.00
49459;BME280;35354;51.296;16.924;2024-01-15T05:03:47;97332.03;;;1.52;100.00
49459;BME280;35354;51.296;16.924;2024-01-15T05:06:12;97306.44;;;1.33;100.00
49459;BME280;35354;51.296;16.924;2024-01-15T05:08:37;97344.72;;;1.55;100.00
49459;BME280;35354;51.296;16.924;2024-01-15T05:11:03;97312.88;;;1.41;100.00
49459;BME280;35354;51.296;16.924;2024-01-15T05:13:28;97317.44;;;1.35;100.00
49459;BME280;35354;51.296;16.924;2024-01-15T05:15:54;97346.69;;;1.49;100.00
49459;BME280;35354;51.296;16.924;2024-01-15T05:18:19;97314.63;;;1.41;100.00
49459;BME280;35354;51.296;16.924;2024-01-15T05:20:45;97332.25;;;1.47;100.00
49459;BME280;35354;51.296;16.924;2024-01-15T05:23:10;97327.31;;;1.44;100.00
49459;BME280;35354;51.296;16.924;2024-01-15T05:25:35;97326.31;;;1.46;100.00
49459;BME280;35354;51.296;16.924;2024-01-15T05:28:01;97342.75;;;1.42;100.00
49459;BME280;35354;51.296;16.924;2024-01-15T05:30:27;97344.84;;;1.34;100.00
49459;BME280;35354;51.296;16.924;2024-01-15T05:32:52;97337.91;;;1.36;100.00
49459;BME280;35354;51.296;16.924;2024-01-15T05:35:18;97304.53;;;1.19;100.00
49459;BME280;35354;51.296;16.924;2024-01-15T05:37:45;97317.19;;;1.22;100.00
49459;BME280;35354;51.296;16.924;2024-01-15T05:40:12;97337.84;;;1.38;100.00
49459;BME280;35354;51.296;16.924;2024-01-15T05:42:38;97331.97;;;1.36;100.00
49459;BME280;35354;51.296;16.924;2024-01-15T05:45:04;97306.28;;;1.18;100.00
49459;BME280;35354;51.296;16.924;2024-01-15T05:47:30;97352.78;;;1.47;100.00
49459;BME280;35354;51.296;16.924;2024-01-15T05:49:56;97348.09;;;1.38;100.00
49459;BME280;35354;51.296;16.924;2024-01-15T05:52:22;97301.16;;;1.18;100.00
49459;BME280;35354;51.296;16.924;2024-01-15T05:54:47;97312.91;;;1.22;100.00
49459;BME280;35354;51.296;16.924;2024-01-15T05:57:13;97344.13;;;1.49;100.00
49459;BME280;35354;51.296;16.924;2024-01-15T05:59:38;97303.53;;;1.21;100.00
49459;BME280;35354;51.296;16.924;2024-01-15T06:02:04;97312.47;;;1.32;100.00
49459;BME280;35354;51.296;16.924;2024-01-15T06:04:29;97312.00;;;1.23;100.00
49459;BME280;35354;51.296;16.924;2024-01-15T06:06:55;97364.72;;;1.48;100.00
49459;BME280;35354;51.296;16.924;2024-01-15T06:09:20;97372.78;;;1.40;100.00
49459;BME280;35354;51.296;16.924;2024-01-15T06:11:45;97355.25;;;1.31;100.00
49459;BME280;35354;51.296;16.924;2024-01-15T06:14:11;97356.56;;;1.40;100.00
49459;BME280;35354;51.296;16.924;2024-01-15T06:16:36;97349.81;;;1.37;100.00
49459;BME280;35354;51.296;16.924;2024-01-15T06:19:02;97347.81;;;1.25;100.00
49459;BME280;35354;51.296;16.924;2024-01-15T06:21:28;97344.50;;;1.23;100.00
49459;BME280;35354;51.296;16.924;2024-01-15T06:23:53;97342.00;;;1.21;100.00
49459;BME280;35354;51.296;16.924;2024-01-15T06:26:18;97375.59;;;1.34;100.00
49459;BME280;35354;51.296;16.924;2024-01-15T06:28:44;97381.66;;;1.33;100.00
49459;BME280;35354;51.296;16.924;2024-01-15T06:31:09;97368.81;;;1.33;100.00
49459;BME280;35354;51.296;16.924;2024-01-15T06:33:35;97350.91;;;1.14;100.00
49459;BME280;35354;51.296;16.924;2024-01-15T06:36:00;97366.00;;;1.20;100.00
49459;BME280;35354;51.296;16.924;2024-01-15T06:38:26;97344.28;;;1.09;100.00
49459;BME280;35354;51.296;16.924;2024-01-15T06:40:51;97344.63;;;1.01;100.00
49459;BME280;35354;51.296;16.924;2024-01-15T06:43:17;97366.00;;;1.20;100.00
49459;BME280;35354;51.296;16.924;2024-01-15T06:45:44;97379.38;;;1.27;100.00
49459;BME280;35354;51.296;16.924;2024-01-15T06:48:09;97350.53;;;1.03;100.00
49459;BME280;35354;51.296;16.924;2024-01-15T06:50:34;97371.66;;;1.08;100.00
49459;BME280;35354;51.296;16.924;2024-01-15T06:53:00;97397.44;;;1.24;100.00
49459;BME280;35354;51.296;16.924;2024-01-15T06:55:25;97383.09;;;1.20;100.00
49459;BME280;35354;51.296;16.924;2024-01-15T06:57:52;97347.19;;;0.82;100.00
49459;BME280;35354;51.296;16.924;2024-01-15T07:00:18;97389.59;;;0.89;100.00
49459;BME280;35354;51.296;16.924;2024-01-15T07:02:45;97358.59;;;0.56;100.00
49459;BME280;35354;51.296;16.924;2024-01-15T07:05:10;97343.94;;;0.39;100.00
49459;BME280;35354;51.296;16.924;2024-01-15T07:07:36;97394.38;;;0.58;100.00
49459;BME280;35354;51.296;16.924;2024-01-15T07:10:02;97393.44;;;0.40;100.00
49459;BME280;35354;51.296;16.924;2024-01-15T07:12:29;97363.47;;;0.21;100.00
49459;BME280;35354;51.296;16.924;2024-01-15T07:14:55;97399.13;;;0.46;100.00
49459;BME280;35354;51.296;16.924;2024-01-15T07:17:21;97345.28;;;0.07;100.00
49459;BME280;35354;51.296;16.924;2024-01-15T07:19:46;97381.66;;;0.36;100.00
49459;BME280;35354;51.296;16.924;2024-01-15T07:22:12;97358.41;;;0.20;100.00
49459;BME280;35354;51.296;16.924;2024-01-15T07:24:37;97399.19;;;0.45;100.00
49459;BME280;35354;51.296;16.924;2024-01-15T07:27:03;97388.13;;;0.44;100.00
49459;BME280;35354;51.296;16.924;2024-01-15T07:29:30;97401.03;;;0.41;100.00
49459;BME280;35354;51.296;16.924;2024-01-15T07:31:55;97354.31;;;0.16;100.00
49459;BME280;35354;51.296;16.924;2024-01-15T07:34:21;97386.91;;;0.33;100.00
49459;BME280;35354;51.296;16.924;2024-01-15T07:36:47;97363.47;;;0.21;100.00
49459;BME280;35354;51.296;16.924;2024-01-15T07:39:12;97403.28;;;0.49;100.00
49459;BME280;35354;51.296;16.924;2024-01-15T07:41:39;97381.38;;;0.42;100.00
49459;BME280;35354;51.296;16.924;2024-01-15T07:44:05;97383.78;;;0.46;100.00
49459;BME280;35354;51.296;16.924;2024-01-15T07:46:31;97355.63;;;0.26;100.00
49459;BME280;35354;51.296;16.924;2024-01-15T07:48:57;97382.25;;;0.42;100.00
49459;BME280;35354;51.296;16.924;2024-01-15T07:51:25;97345.94;;;0.33;100.00
49459;BME280;35354;51.296;16.924;2024-01-15T07:53:53;97392.44;;;0.63;100.00
49459;BME280;35354;51.296;16.924;2024-01-15T07:56:18;97395.72;;;0.66;100.00
49459;BME280;35354;51.296;16.924;2024-01-15T07:58:44;97406.88;;;0.65;100.00
49459;BME280;35354;51.296;16.924;2024-01-15T08:01:09;97374.88;;;0.55;100.00
49459;BME280;35354;51.296;16.924;2024-01-15T08:03:35;97353.38;;;0.39;100.00
49459;BME280;35354;51.296;16.924;2024-01-15T08:06:00;97360.25;;;0.57;100.00
49459;BME280;35354;51.296;16.924;2024-01-15T08:08:26;97391.78;;;0.78;100.00
49459;BME280;35354;51.296;16.924;2024-01-15T08:10:54;97395.25;;;0.77;100.00
49459;BME280;35354;51.296;16.924;2024-01-15T08:13:19;97384.81;;;0.82;100.00
49459;BME280;35354;51.296;16.924;2024-01-15T08:15:45;97352.38;;;0.62;100.00
49459;BME280;35354;51.296;16.924;2024-01-15T08:18:11;97353.28;;;0.61;100.00
49459;BME280;35354;51.296;16.924;2024-01-15T08:20:36;97365.25;;;0.60;100.00
49459;BME280;35354;51.296;16.924;2024-01-15T08:23:02;97361.66;;;0.64;100.00
49459;BME280;35354;51.296;16.924;2024-01-15T08:25:28;97373.44;;;0.68;99.90
49459;BME280;35354;51.296;16.924;2024-01-15T08:27:53;97361.50;;;0.67;100.00
49459;BME280;35354;51.296;16.924;2024-01-15T08:30:18;97359.84;;;0.66;100.00
49459;BME280;35354;51.296;16.924;2024-01-15T08:32:45;97398.38;;;0.84;99.28
49459;BME280;35354;51.296;16.924;2024-01-15T08:35:11;97346.75;;;0.54;98.92
49459;BME280;35354;51.296;16.924;2024-01-15T08:37:37;97355.75;;;0.62;98.27
49459;BME280;35354;51.296;16.924;2024-01-15T08:40:03;97358.47;;;0.59;98.45
49459;BME280;35354;51.296;16.924;2024-01-15T08:42:29;97399.97;;;0.86;98.19
49459;BME280;35354;51.296;16.924;2024-01-15T08:44:54;97356.13;;;0.73;98.03
49459;BME280;35354;51.296;16.924;2024-01-15T08:47:20;97387.25;;;0.85;97.74
49459;BME280;35354;51.296;16.924;2024-01-15T08:49:46;97396.59;;;0.86;97.11
49459;BME280;35354;51.296;16.924;2024-01-15T08:52:11;97389.94;;;0.82;97.20
49459;BME280;35354;51.296;16.924;2024-01-15T08:54:37;97367.31;;;0.71;97.04
49459;BME280;35354;51.296;16.924;2024-01-15T08:57:03;97361.88;;;0.79;97.18
49459;BME280;35354;51.296;16.924;2024-01-15T08:59:28;97363.72;;;0.75;97.00
49459;BME280;35354;51.296;16.924;2024-01-15T09:01:54;97378.66;;;0.86;96.44
49459;BME280;35354;51.296;16.924;2024-01-15T09:04:22;97366.50;;;0.70;97.24
49459;BME280;35354;51.296;16.924;2024-01-15T09:06:49;97374.63;;;0.80;97.42
49459;BME280;35354;51.296;16.924;2024-01-15T09:09:15;97344.44;;;0.68;97.53
49459;BME280;35354;51.296;16.924;2024-01-15T09:11:44;97374.47;;;0.83;97.02
49459;BME280;35354;51.296;16.924;2024-01-15T09:14:10;97371.22;;;0.80;97.16
49459;BME280;35354;51.296;16.924;2024-01-15T09:16:36;97359.53;;;0.74;97.20
49459;BME280;35354;51.296;16.924;2024-01-15T09:19:01;97370.88;;;0.87;97.28
49459;BME280;35354;51.296;16.924;2024-01-15T09:21:28;97338.06;;;0.77;96.32
49459;BME280;35354;51.296;16.924;2024-01-15T09:23:53;97343.81;;;0.82;96.41
49459;BME280;35354;51.296;16.924;2024-01-15T09:26:19;97380.13;;;1.10;95.97
49459;BME280;35354;51.296;16.924;2024-01-15T09:28:44;97388.44;;;1.15;95.99
49459;BME280;35354;51.296;16.924;2024-01-15T09:31:11;97340.97;;;0.88;94.98
49459;BME280;35354;51.296;16.924;2024-01-15T09:33:36;97384.72;;;1.22;95.06
49459;BME280;35354;51.296;16.924;2024-01-15T09:36:03;97354.53;;;1.09;94.89
49459;BME280;35354;51.296;16.924;2024-01-15T09:38:30;97384.00;;;1.38;94.71
49459;BME280;35354;51.296;16.924;2024-01-15T09:40:57;97352.47;;;1.17;94.21
49459;BME280;35354;51.296;16.924;2024-01-15T09:43:23;97398.22;;;1.45;93.86
49459;BME280;35354;51.296;16.924;2024-01-15T09:45:49;97331.22;;;1.15;93.62
49459;BME280;35354;51.296;16.924;2024-01-15T09:48:15;97376.56;;;1.50;92.82
49459;BME280;35354;51.296;16.924;2024-01-15T09:50:41;97385.78;;;1.55;92.11
49459;BME280;35354;51.296;16.924;2024-01-15T09:53:07;97368.38;;;1.42;92.24
49459;BME280;35354;51.296;16.924;2024-01-15T09:55:36;97371.56;;;1.47;91.63
49459;BME280;35354;51.296;16.924;2024-01-15T09:58:02;97380.03;;;1.49;91.39
49459;BME280;35354;51.296;16.924;2024-01-15T10:00:28;97398.13;;;1.65;91.27
49459;BME280;35354;51.296;16.924;2024-01-15T10:02:55;97373.94;;;1.52;91.29
49459;BME280;35354;51.296;16.924;2024-01-15T10:05:21;97383.22;;;1.55;90.65
49459;BME280;35354;51.296;16.924;2024-01-15T10:07:47;97320.22;;;1.30;91.31
49459;BME280;35354;51.296;16.924;2024-01-15T10:10:13;97331.63;;;1.24;91.10
49459;BME280;35354;51.296;16.924;2024-01-15T10:12:39;97357.00;;;1.31;90.78
49459;BME280;35354;51.296;16.924;2024-01-15T10:15:05;97349.00;;;1.18;91.39
49459;BME280;35354;51.296;16.924;2024-01-15T10:17:30;97328.66;;;1.15;91.34
49459;BME280;35354;51.296;16.924;2024-01-15T10:19:57;97354.34;;;1.32;91.48
49459;BME280;35354;51.296;16.924;2024-01-15T10:22:22;97331.06;;;1.18;91.52
49459;BME280;35354;51.296;16.924;2024-01-15T10:24:48;97363.56;;;1.36;91.31
49459;BME280;35354;51.296;16.924;2024-01-15T10:27:14;97353.50;;;1.32;91.00
49459;BME280;35354;51.296;16.924;2024-01-15T10:29:41;97375.22;;;1.43;91.23
49459;BME280;35354;51.296;16.924;2024-01-15T10:32:07;97375.34;;;1.40;91.52
49459;BME280;35354;51.296;16.924;2024-01-15T10:34:42;97356.50;;;1.59;92.05
49459;BME280;35354;51.296;16.924;2024-01-15T10:37:10;97332.34;;;1.45;91.59
49459;BME280;35354;51.296;16.924;2024-01-15T10:39:36;97355.34;;;1.83;91.28
49459;BME280;35354;51.296;16.924;2024-01-15T10:42:02;97337.59;;;1.61;90.36
49459;BME280;35354;51.296;16.924;2024-01-15T10:44:29;97355.72;;;1.75;90.05
49459;BME280;35354;51.296;16.924;2024-01-15T10:46:55;97311.09;;;1.43;89.46
49459;BME280;35354;51.296;16.924;2024-01-15T10:49:21;97326.47;;;1.43;89.43
49459;BME280;35354;51.296;16.924;2024-01-15T10:51:50;97367.34;;;1.65;89.58
49459;BME280;35354;51.296;16.924;2024-01-15T10:54:17;97341.34;;;1.54;89.55
49459;BME280;35354;51.296;16.924;2024-01-15T10:56:45;97296.50;;;1.27;89.67
49459;BME280;35354;51.296;16.924;2024-01-15T10:59:12;97325.56;;;1.44;89.35
49459;BME280;35354;51.296;16.924;2024-01-15T11:01:38;97344.47;;;1.61;89.77
49459;BME280;35354;51.296;16.924;2024-01-15T11:04:04;97318.25;;;1.54;89.56
49459;BME280;35354;51.296;16.924;2024-01-15T11:06:42;97370.63;;;1.86;89.37
49459;BME280;35354;51.296;16.924;2024-01-15T11:09:08;97374.00;;;1.87;88.88
49459;BME280;35354;51.296;16.924;2024-01-15T11:11:35;97322.13;;;1.63;88.61
49459;BME280;35354;51.296;16.924;2024-01-15T11:14:02;97335.13;;;1.77;88.73
49459;BME280;35354;51.296;16.924;2024-01-15T11:16:54;97369.63;;;2.06;88.65
49459;BME280;35354;51.296;16.924;2024-01-15T11:19:20;97334.91;;;1.99;88.29
49459;BME280;35354;51.296;16.924;2024-01-15T11:21:45;97361.50;;;2.15;87.92
49459;BME280;35354;51.296;16.924;2024-01-15T11:24:34;97368.88;;;2.21;87.34
49459;BME280;35354;51.296;16.924;2024-01-15T11:27:00;97331.34;;;2.02;87.07
49459;BME280;35354;51.296;16.924;2024-01-15T11:29:29;97374.25;;;2.34;87.27
49459;BME280;35354;51.296;16.924;2024-01-15T11:34:21;97364.19;;;2.30;86.89
49459;BME280;35354;51.296;16.924;2024-01-15T11:39:42;97358.97;;;2.48;87.02
49459;BME280;35354;51.296;16.924;2024-01-15T11:42:09;97351.25;;;2.48;86.36
49459;BME280;35354;51.296;16.924;2024-01-15T11:44:34;97330.28;;;2.40;86.58
49459;BME280;35354;51.296;16.924;2024-01-15T11:47:07;97340.16;;;2.48;86.67
49459;BME280;35354;51.296;16.924;2024-01-15T11:52:22;97363.31;;;2.64;85.49
49459;BME280;35354;51.296;16.924;2024-01-15T11:57:47;97315.25;;;2.33;85.84
49459;BME280;35354;51.296;16.924;2024-01-15T12:00:14;97359.19;;;2.61;85.91
49459;BME280;35354;51.296;16.924;2024-01-15T12:02:44;97340.00;;;2.51;86.07
49459;BME280;35354;51.296;16.924;2024-01-15T12:05:12;97345.22;;;2.49;86.18
49459;BME280;35354;51.296;16.924;2024-01-15T12:07:42;97346.88;;;2.50;85.81
49459;BME280;35354;51.296;16.924;2024-01-15T12:10:12;97331.03;;;2.42;86.11
49459;BME280;35354;51.296;16.924;2024-01-15T12:15:06;97371.88;;;2.64;86.22
49459;BME280;35354;51.296;16.924;2024-01-15T12:17:32;97329.38;;;2.41;86.13
49459;BME280;35354;51.296;16.924;2024-01-15T12:19:57;97330.09;;;2.43;85.86
49459;BME280;35354;51.296;16.924;2024-01-15T12:22:23;97320.88;;;2.39;85.85
49459;BME280;35354;51.296;16.924;2024-01-15T12:24:48;97330.88;;;2.45;86.10
49459;BME280;35354;51.296;16.924;2024-01-15T12:27:14;97340.00;;;2.51;86.24
49459;BME280;35354;51.296;16.924;2024-01-15T12:29:39;97359.19;;;2.61;86.36
49459;BME280;35354;51.296;16.924;2024-01-15T12:32:05;97345.66;;;2.58;85.81
49459;BME280;35354;51.296;16.924;2024-01-15T12:34:32;97316.19;;;2.47;85.75
49459;BME280;35354;51.296;16.924;2024-01-15T12:36:58;97356.91;;;2.55;85.71
49459;BME280;35354;51.296;16.924;2024-01-15T12:39:24;97323.78;;;2.33;85.30
49459;BME280;35354;51.296;16.924;2024-01-15T12:41:50;97344.09;;;2.38;85.62
49459;BME280;35354;51.296;16.924;2024-01-15T12:44:16;97358.22;;;2.46;85.75
49459;BME280;35354;51.296;16.924;2024-01-15T12:46:42;97344.78;;;2.41;85.61
49459;BME280;35354;51.296;16.924;2024-01-15T12:49:08;97346.75;;;2.36;85.80
49459;BME280;35354;51.296;16.924;2024-01-15T12:51:34;97330.66;;;2.33;85.74
49459;BME280;35354;51.296;16.924;2024-01-15T12:54:00;97343.63;;;2.47;86.12
49459;BME280;35354;51.296;16.924;2024-01-15T12:56:25;97329.84;;;2.32;85.71
49459;BME280;35354;51.296;16.924;2024-01-15T12:58:50;97341.16;;;2.45;85.51